الصفحة الرئيسية
METAR-TAF:

METAR-TAF

مطار :

ألاموغوردو, نيومكسيكو, الولايات المتحدة

دائرة عرض: 32-50N, خط طول: 105-59W, ارتفاع: 1279 متر

مراقبة الطقس الحالي

تاريخ ووقت الإصدار 22 دقيقة قبل الساعة 06:35UTC
ريح 5 عقدة من الجنوب/الجنوب الشرقي
درجة الحرارة 5°درجة مئوية
الرطوبة 81%
ضغط 1019 hPa
الرؤية: 16.1 كم
غيوم قليلة على ارتفاع 10000 قدم

METAR: KALM 220635Z AUTO 15005KT 10SM FEW100 05/02 A3009 RMK AO2

زمن: 23:57 (06:57 UTC)


TAF: مفقودة

أرصاد الطقس والتوقعات من أكثر من 4000 مطار (تقارير الطقس للمطار METAR والتنبؤ بالطقس بالمطارTAF).

المحطات المتاحة هي النقط الصفراء والحمراء على الخريطة.

حرك المؤشر فوق النقطة لمعرفة اسم المحطة.

ثم انقر لمعرفة أرصاد وتوقعات الطقس.

لتغيير الخارطة: اضغط على الأزرار الخضراء مع رمز الصليب الأسود للتكبير. على الزر الأخضر مع شرطة للتصغير، أو على الأسهم الخضراء للخرائط المجاورة.


METAR-TAF: